Aviation Digital Data Service (ADDS)

Output produced by METARs form (1449 UTC 23 January 2019)
found at http://www.aviationweather.gov/metar/data/
 
Forecast for: UTST (TERMEZ , UZ)
Text: TAF UTST 231100Z 2312/2412 10006G16KT 6000 NSC
Forecast period: 1200 UTC 23 January 2019 to 1200 UTC 24 January 2019
Forecast type: FROM: standard forecast or significant change
Winds: from the E (100 degrees) at 7 MPH (6 knots; 3.1 m/s)
gusting to 18 MPH (16 knots; 8.2 m/s)
Visibility: 4 miles (6 km)
Ceiling: unknown
Clouds: missing
Weather: no significant weather forecast for this period
Text: TEMPO 2313/2318 3000 BR FU
Forecast period: 1300 to 1800 UTC 23 January 2019
Forecast type: TEMPORARY: The following changes expected for less than half the time period
Visibility: 1.86 miles (2.99 km)
Ceiling: unknown
Clouds: missing
Weather: BR FU  (mist, smoke)
Text: TEMPO 2318/2403 03008G18KT 1000 BR
Forecast period: 1800 UTC 23 January 2019 to 0300 UTC 24 January 2019
Forecast type: TEMPORARY: The following changes expected for less than half the time period
Winds: from the NNE (30 degrees) at 9 MPH (8 knots; 4.1 m/s)
gusting to 21 MPH (18 knots; 9.3 m/s)
Visibility: 0.62 miles (1.00 km)
Ceiling: unknown
Clouds: missing
Weather: BR  (mist)